• Join FlightAware (Why Join?)
  • Login
  • US Flag 
03:44AM EDT


 

Airport Tracker/Info


-or-


 

Live Flight TrackerFlight Track Log ✈ SWA1974 ✈ 12-Jul-2014 ✈ KMCI - KPDX

Flight Track Log - Related Links

Times and Time Zones

All times are in EDT time to prevent confusion due to time zone crossing. See the SWA1974 flight status page for this flight to view local times or setup timezone preferences in your user account.

Time Position Orientation Groundspeed Altitude Reporting Facility
EDT Latitude Longitude Course Direction KTS MPH feet Rate Location/Type
10:41PM 39.2833 -94.7167 218° Southwest 142 163 1,900  Level Kansas City TRACON
10:41PM 39.2667 -94.7333 218° Southwest 152 175 2,800 1,320 Climbing Kansas City TRACON
10:42PM 39.2833 -94.8000 288° West 230 265 3,900 1,380 Climbing Kansas City TRACON
10:43PM 39.2814 -94.8467 267° West 230 265 5,000 2,460 Climbing Kansas City Center
10:44PM 39.2825 -94.9397 271° West 255 293 8,000 2,760 Climbing Kansas City Center
10:45PM 39.2853 -95.0408 272° West 277 319 10,700 2,460 Climbing Kansas City Center
10:46PM 39.2881 -95.1864 271° West 351 404 13,200 2,580 Climbing Kansas City Center
10:47PM 39.2897 -95.3222 271° West 360 414 16,000 2,520 Climbing Kansas City Center
10:48PM 39.2925 -95.4511 272° West 374 430 18,300 2,220 Climbing Kansas City Center
10:49PM 39.2958 -95.5800 272° West 383 441 20,600 2,100 Climbing Kansas City Center
10:50PM 39.2967 -95.7197 270° West 388 447 22,600 1,860 Climbing Kansas City Center
10:51PM 39.2994 -95.8636 271° West 401 461 24,500 1,680 Climbing Kansas City Center
10:52PM 39.3011 -96.0117 271° West 410 472 26,100 1,620 Climbing Kansas City Center
10:53PM 39.3058 -96.1697 272° West 417 480 27,900 1,440 Climbing Kansas City Center
10:54PM 39.3386 -96.3194 286° West 429 494 29,100 1,380 Climbing Kansas City Center
10:55PM 39.3783 -96.4942 286° West 438 504 30,800 1,500 Climbing Kansas City Center
10:56PM 39.4119 -96.6453 286° West 438 504 32,200 1,380 Climbing Kansas City Center
10:57PM 39.4456 -96.7956 286° West 438 504 33,700 1,380 Climbing Kansas City Center
10:58PM 39.4772 -96.9475 285° West 438 504 35,100 1,380 Climbing Kansas City Center
10:59PM 39.5108 -97.0958 286° West 436 502 36,600 1,320 Climbing Kansas City Center
11:00PM 39.5411 -97.2403 285° West 426 490 37,900 660 Climbing Kansas City Center
11:01PM 39.5725 -97.3861 286° West 424 488 38,000  Climbing Kansas City Center
11:02PM 39.6042 -97.5275 286° West 417 480 38,000  Level Kansas City Center
11:03PM 39.6344 -97.6703 285° West 413 475 38,000  Level Kansas City Center
11:04PM 39.6653 -97.8156 285° West 413 475 38,000  Level Kansas City Center
11:05PM 39.6936 -97.9664 284° West 416 479 38,000  Level Kansas City Center
11:06PM 39.7236 -98.1072 286° West 412 474 38,000  Level Kansas City Center
11:07PM 39.7586 -98.2792 285° West 412 474 38,000  Level Kansas City Center
11:09PM 39.7986 -98.4772 285° West 408 470 38,000  Level Denver Center
11:10PM 39.8272 -98.6217 285° West 410 472 38,000  Level Minneapolis Center
11:11PM 39.8553 -98.7631 285° West 407 468 38,000  Level Minneapolis Center
11:12PM 39.8831 -98.9072 284° West 408 470 38,000  Level Denver Center
11:13PM 39.9117 -99.0522 284° West 409 471 38,000  Level Denver Center
11:14PM 39.9408 -99.1969 285° West 411 473 38,000  Level Denver Center
11:15PM 39.9689 -99.3414 284° West 411 473 38,000  Level Denver Center
11:16PM 39.9978 -99.4881 284° West 411 473 38,000  Level Denver Center
11:17PM 40.0250 -99.6331 284° West 412 474 38,000  Level Denver Center
11:18PM 40.0528 -99.7789 284° West 412 474 38,000  Level Denver Center
11:19PM 40.0831 -99.9461 283° West 413 475 38,000  Level Denver Center
11:20PM 40.1100 -100.0867 284° West 415 478 38,000  Level Denver Center
11:21PM 40.1403 -100.2514 284° West 416 479 38,000  Level Denver Center
11:22PM 40.1672 -100.3933 284° West 416 479 38,000  Level Denver Center
11:23PM 40.1925 -100.5347 283° West 416 479 38,000  Level Denver Center
11:24PM 40.2419 -100.6933 292° West 422 486 38,000  Level Denver Center
11:25PM 40.2925 -100.8267 296° West 423 487 38,000  Level Denver Center
11:26PM 40.3425 -100.9589 296° West 423 487 38,000  Level Denver Center
11:27PM 40.4014 -101.1097 297° West 419 482 38,000  Level Denver Center
11:28PM 40.4503 -101.2403 296° West 415 478 38,000  Level Denver Center
11:29PM 40.4983 -101.3686 296° West 411 473 38,000  Level Denver Center
11:30PM 40.5547 -101.5175 297° West 409 471 38,000  Level Denver Center
11:31PM 40.6028 -101.6453 296° West 409 471 38,000  Level Denver Center
11:32PM 40.6578 -101.7956 296° West 408 470 38,000  Level Denver Center
11:33PM 40.7064 -101.9242 297° West 408 470 38,000  Level Denver Center
11:34PM 40.7528 -102.0522 296° West 408 470 38,000  Level Denver Center
11:35PM 40.8069 -102.2008 296° West 406 467 38,000  Level Denver Center
11:36PM 40.8542 -102.3300 296° West 407 468 38,000  Level Denver Center
11:37PM 40.9014 -102.4611 296° West 410 472 38,000  Level Denver Center
11:38PM 40.9556 -102.6142 295° West 413 475 38,000  Level Denver Center
11:39PM 40.9839 -102.7547 285° West 414 476 38,000  Level Denver Center
11:40PM 41.0042 -102.8964 281° West 413 475 38,000  Level Denver Center
11:41PM 41.0278 -103.0711 280° West 413 475 38,000  Level Denver Center
11:42PM 41.0464 -103.2119 280° West 409 471 38,000  Level Denver Center
11:43PM 41.0669 -103.3497 281° West 403 464 38,000  Level Denver Center
11:44PM 41.0908 -103.5117 281° West 403 464 38,000  Level Denver Center
11:45PM 41.1128 -103.6492 282° West 402 463 38,000  Level Denver Center
11:46PM 41.1339 -103.7872 282° West 400 460 38,000  Level Denver Center
11:47PM 41.1781 -103.9419 291° West 401 461 38,000  Level Denver Center
11:48PM 41.2258 -104.0683 297° West 401 461 38,000  Level Denver Center
11:49PM 41.2728 -104.1953 296° West 401 461 38,000  Level Denver Center
11:50PM 41.3278 -104.3439 296° West 400 460 38,000  Level Denver Center
11:51PM 41.3731 -104.4711 295° West 399 459 38,000  Level Denver Center
11:52PM 41.4194 -104.6000 296° West 399 459 38,000  Level Denver Center
11:54PM 41.4717 -104.7489 295° West 398 458 38,000  Level Denver Center
11:55PM 41.5164 -104.8753 295° West 398 458 38,000  Level Denver Center
11:56PM 41.5689 -105.0247 295° West 397 457 38,000  Level Denver Center
11:57PM 41.6142 -105.1528 295° West 397 457 38,000  Level Denver Center
11:58PM 41.6589 -105.2806 295° West 397 457 38,000  Level Denver Center
11:59PM 41.7117 -105.4314 295° West 397 457 38,000  Level Denver Center
12:00AM 41.7561 -105.5622 295° West 402 463 38,000  Level Denver Center
12:01AM 41.8003 -105.6897 295° West 399 459 38,000  Level Denver Center
12:02AM 41.8519 -105.8403 295° West 397 457 38,000  Level Denver Center
12:03AM 41.8969 -105.9697 295° West 398 458 38,000  Level Denver Center
12:04AM 41.9403 -106.0997 294° West 398 458 38,000  Level Denver Center
12:05AM 41.9925 -106.2522 295° West 399 459 38,000  Level Denver Center
12:06AM 42.0361 -106.3814 294° West 400 460 38,000  Level Denver Center
12:07AM 42.0842 -106.5222 295° West 399 459 38,000  Level Denver Center
12:08AM 42.1242 -106.6497 293° West 393 452 38,000  Level Denver Center
12:09AM 42.1742 -106.8008 294° West 393 452 38,000  Level Denver Center
12:10AM 42.2169 -106.9303 294° West 395 455 38,000  Level Denver Center
12:11AM 42.2589 -107.0583 294° West 395 455 38,000  Level Denver Center
12:12AM 42.3092 -107.2106 294° West 395 455 38,000  Level Denver Center
12:13AM 42.3508 -107.3406 293° West 397 457 38,000  Level Denver Center
12:14AM 42.3861 -107.4500 294° West 397 457 38,000  Level Salt Lake Center
12:15AM 42.4342 -107.6022 293° West 397 457 38,000  Level Salt Lake Center
12:16AM 42.4758 -107.7339 293° West 398 458 38,000  Level Salt Lake Center
12:17AM 42.5264 -107.8881 294° West 400 460 38,000  Level Salt Lake Center
12:18AM 42.5669 -108.0183 293° West 399 459 38,000  Level Salt Lake Center
12:19AM 42.6075 -108.1472 293° West 395 455 38,000  Level Salt Lake Center
12:20AM 42.6556 -108.3014 293° West 395 455 38,000  Level Salt Lake Center
12:21AM 42.6958 -108.4303 293° West 394 453 38,000  Level Salt Lake Center
12:22AM 42.7439 -108.5831 293° West 394 453 38,000  Level Salt Lake Center
12:23AM 42.7825 -108.7119 292° West 392 451 38,000  Level Salt Lake Center
12:24AM 42.8222 -108.8400 293° West 388 447 38,000  Level Salt Lake Center
12:25AM 42.8681 -108.9911 293° West 388 447 38,000  Level Salt Lake Center
12:26AM 42.9086 -109.1217 293° West 389 448 38,000  Level Salt Lake Center
12:27AM 42.9519 -109.2731 291° West 388 447 38,000  Level Salt Lake Center
12:28AM 42.9942 -109.4103 293° West 388 447 38,000  Level Salt Lake Center
12:29AM 43.0347 -109.5472 292° West 388 447 38,000  Level Salt Lake Center
12:30AM 43.0753 -109.6875 292° West 393 452 38,000  Level Salt Lake Center
12:31AM 43.1167 -109.8242 293° West 393 452 38,000  Level Salt Lake Center
12:32AM 43.1550 -109.9519 292° West 390 449 38,000  Level Salt Lake Center
12:33AM 43.1956 -110.0911 292° West 390 449 38,000  Level Salt Lake Center
12:34AM 43.2364 -110.2297 292° West 391 450 38,000  Level Salt Lake Center
12:35AM 43.2822 -110.3922 291° West 390 449 38,000  Level Salt Lake Center
12:36AM 43.3203 -110.5247 292° West 390 449 38,000  Level Salt Lake Center
12:37AM 43.3619 -110.6725 291° West 390 449 38,000  Level Salt Lake Center
12:38AM 43.4017 -110.8117 291° West 390 449 38,000  Level Salt Lake Center
12:39AM 43.4403 -110.9539 291° West 398 458 38,000  Level Salt Lake Center
12:40AM 43.4836 -111.0925 293° West 393 452 38,000  Level Salt Lake Center
12:41AM 43.5219 -111.2383 290° West 397 457 38,000  Level Salt Lake Center
12:42AM 43.5611 -111.3806 291° West 398 458 38,000  Level Salt Lake Center
12:43AM 43.6008 -111.5219 291° West 398 458 38,000  Level Salt Lake Center
12:44AM 43.6400 -111.6656 291° West 398 458 38,000  Level Salt Lake Center
12:45AM 43.6714 -111.7789 291° West 398 458 38,000  Level Salt Lake Center
12:46AM 43.7100 -111.9225 290° West 398 458 38,000  Level Salt Lake Center
12:47AM 43.7483 -112.0656 290° West 397 457 38,000  Level Salt Lake Center
12:48AM 43.7864 -112.2075 290° West 397 457 38,000  Level Salt Lake Center
12:49AM 43.8239 -112.3494 290° West 396 456 38,000  Level Salt Lake Center
12:50AM 43.8622 -112.4928 290° West 395 455 38,000  Level Salt Lake Center
12:51AM 43.8992 -112.6344 290° West 394 453 38,000  Level Salt Lake Center
12:52AM 43.9356 -112.7756 290° West 393 452 38,000  Level Salt Lake Center
12:53AM 43.9733 -112.9175 290° West 392 451 38,000  Level Salt Lake Center
12:54AM 44.0094 -113.0572 290° West 390 449 38,000  Level Salt Lake Center
12:55AM 44.0447 -113.1978 289° West 389 448 38,000  Level Salt Lake Center
12:56AM 44.0811 -113.3386 290° West 388 447 38,000  Level Salt Lake Center
12:57AM 44.1164 -113.4783 289° West 385 443 38,000  Level Salt Lake Center
12:58AM 44.1522 -113.6175 290° West 385 443 38,000  Level Salt Lake Center
12:59AM 44.1883 -113.7583 290° West 385 443 38,000  Level Salt Lake Center
01:00AM 44.2275 -113.9267 288° West 385 443 38,000  Level Salt Lake Center
01:01AM 44.2628 -114.0611 290° West 389 448 38,000  Level Salt Lake Center
01:02AM 44.2975 -114.2003 289° West 388 447 38,000  Level Salt Lake Center
01:03AM 44.3303 -114.3425 288° West 388 447 38,000  Level Salt Lake Center
01:04AM 44.3661 -114.4850 289° West 388 447 38,000  Level Salt Lake Center
01:05AM 44.4003 -114.6269 289° West 388 447 38,000  Level Salt Lake Center
01:06AM 44.4344 -114.7708 288° West 390 449 38,000  Level Salt Lake Center
01:07AM 44.4692 -114.9153 289° West 390 449 38,000  Level Salt Lake Center
01:08AM 44.5028 -115.0572 288° West 390 449 38,000  Level Salt Lake Center
01:09AM 44.5425 -115.2272 288° West 389 448 38,000  Level Salt Lake Center
01:10AM 44.5761 -115.3681 289° West 388 447 38,000  Level Salt Lake Center
01:11AM 44.6094 -115.5083 289° West 386 444 38,000  Level Salt Lake Center
01:12AM 44.6419 -115.6497 288° West 386 444 38,000  Level Salt Lake Center
01:13AM 44.6742 -115.7908 288° West 385 443 38,000  Level Salt Lake Center
01:14AM 44.7072 -115.9303 288° West 385 443 38,000  Level Salt Lake Center
01:15AM 44.7383 -116.0714 287° West 384 442 38,000  Level Salt Lake Center
01:16AM 44.7631 -116.1853 287° West 384 442 38,000  Level Seattle Center
01:17AM 44.7933 -116.3286 287° West 384 442 38,000  Level Seattle Center
01:18AM 44.8200 -116.4742 285° West 384 442 38,000  Level Seattle Center
01:19AM 44.8483 -116.6200 285° West 386 444 38,000  Level Seattle Center
01:20AM 44.8775 -116.7669 286° West 388 447 38,000  Level Seattle Center
01:21AM 44.9058 -116.9117 285° West 388 447 38,000  Level Seattle Center
01:22AM 44.9331 -117.0589 285° West 388 447 38,000  Level Seattle Center
01:23AM 44.9661 -117.2339 285° West 388 447 38,000  Level Seattle Center
01:24AM 44.9942 -117.3778 285° West 386 444 38,000  Level Seattle Center
01:25AM 45.0208 -117.5247 284° West 384 442 38,000  Level Seattle Center
01:26AM 45.0486 -117.6722 285° West 386 444 38,000  Level Seattle Center
01:27AM 45.0747 -117.8186 284° West 386 444 38,000  Level Seattle Center
01:28AM 45.1017 -117.9683 284° West 390 449 38,000  Level Seattle Center
01:29AM 45.1283 -118.1169 284° West 390 449 38,000  Level Seattle Center
01:30AM 45.1522 -118.2444 285° West 390 449 38,000  Level Seattle Center
01:31AM 45.1833 -118.4228 284° West 390 449 38,000  Level Seattle Center
01:32AM 45.2061 -118.5700 282° West 388 447 38,000  Level Seattle Center
01:33AM 45.2231 -118.7200 279° West 388 447 38,000  Level Seattle Center
01:34AM 45.2397 -118.8706 279° West 388 447 38,000  Level Seattle Center
01:35AM 45.2578 -119.0206 280° West 389 448 38,000  Level Seattle Center
01:36AM 45.2756 -119.1711 280° West 389 448 38,000  Level Seattle Center
01:37AM 45.2928 -119.3225 279° West 389 448 38,000  Level Seattle Center
01:38AM 45.3094 -119.4733 279° West 389 448 38,000 -180 Level Seattle Center
01:39AM 45.3247 -119.6239 278° West 389 448 37,700 -600 Descending Seattle Center
01:40AM 45.3408 -119.7717 279° West 388 447 36,800 -960 Descending Seattle Center
01:41AM 45.3556 -119.9194 278° West 386 444 35,800 -960 Descending Seattle Center
01:42AM 45.3706 -120.0714 278° West 388 447 34,900 -1,320 Descending Seattle Center
01:43AM 45.3867 -120.2247 279° West 394 453 33,200 -2,340 Descending Seattle Center
01:44AM 45.4025 -120.3769 278° West 394 453 30,200 -2,940 Descending Seattle Center
01:45AM 45.4189 -120.5411 278° West 420 483 27,300 -2,760 Descending Seattle Center
01:46AM 45.4353 -120.7075 278° West 427 491 24,700 -2,580 Descending Seattle Center
01:47AM 45.4500 -120.8681 278° West 418 481 22,200 -2,700 Descending Seattle Center
01:48AM 45.4675 -121.0531 278° West 399 459 19,300 -2,580 Descending Seattle Center
01:49AM 45.4819 -121.2039 278° West 391 450 17,000 -2,220 Descending Seattle Center
01:50AM 45.4933 -121.3081 279° West 374 430 15,400 -2,280 Descending Seattle Center
01:50AM 45.4947 -121.3467 273° West 373 429 14,700 -2,520 Descending Seattle Center
01:51AM 45.5061 -121.4603 278° West 359 413 12,900 -2,340 Descending Seattle Center
01:51AM 45.5072 -121.4883 273° West 364 419 12,400 -2,220 Descending Seattle Center
01:52AM 45.5158 -121.5675 279° West 350 403 11,100 -1,620 Descending Seattle Center
01:52AM 45.5231 -121.6278 280° West 355 409 10,800 -660 Descending Seattle Center
01:53AM 45.5278 -121.6861 277° West 328 377 10,500 -720 Descending Seattle Center
01:53AM 45.5314 -121.7461 275° West 303 349 10,100 -1,440 Descending Seattle Center
01:54AM 45.5325 -121.8017 272° West 283 326 9,100 -1,800 Descending Seattle Center
01:54AM 45.5297 -121.8644 266° West 303 349 8,300 -1,320 Descending Seattle Center
01:55AM 45.5258 -121.9158 264° West 295 339 7,800 -1,200 Descending Seattle Center
01:55AM 45.5261 -121.9769 270° West 288 331 7,100 -1,320 Descending Seattle Center
01:56AM 45.5231 -122.0375 266° West 283 326 6,500 -1,140 Descending Seattle Center
01:56AM 45.5214 -122.0872 267° West 281 323 6,000 -1,020 Descending Seattle Center
01:57AM 45.5169 -122.1450 264° West 271 312 5,500 -600 Descending Seattle Center
01:57AM 45.5169 -122.1894 270° West 261 300 5,400 -1,020 Descending Seattle Center
01:58AM 45.5131 -122.2422 264° West 246 283 4,500 -1,440 Descending Seattle Center
01:58AM 45.5128 -122.2950 270° West 250 288 4,000 -900 Descending Seattle Center
01:59AM 45.5092 -122.3397 263° West 246 283 3,600 -1,020 Descending Seattle Center
01:59AM 45.5097 -122.3883 271° West 238 274 3,000 -1,200 Descending Seattle Center
02:00AM 45.5186 -122.4283 288° West 204 235 2,300 -1,140 Descending Seattle Center
02:01AM 45.5319 -122.4594 301° West 199 229 1,900 -840 Descending Seattle Center
02:01AM 45.5444 -122.4917 299° West 170 196 1,500 -840 Descending Seattle Center
02:02AM 45.5531 -122.5139 299° West 161 185 1,100 -840 Descending Seattle Center
02:02AM 45.5628 -122.5397 298° West 122 140 700 -600 Descending Seattle Center
02:03AM 45.5700 -122.5569 301° West 132 152 500 -480 Descending Seattle Center
02:06AM 45.5887 -122.5969 298° West  Level Estimated
02:13AM 45.5887 -122.5969 139° Southeast  Level Estimated
02:14AM 45.5887 -122.5969 139° Southeast  Level Estimated